createdAt,value
2023-04-21T00:02:15.152Z,13.13
2023-04-21T00:04:42.187Z,12.43
2023-04-21T00:07:08.464Z,12.77
2023-04-21T00:09:34.880Z,14.50
2023-04-21T00:12:01.070Z,11.87
2023-04-21T00:14:27.252Z,11.37
2023-04-21T00:16:53.654Z,13.33
2023-04-21T00:19:20.207Z,12.27
2023-04-21T00:21:46.684Z,14.87
2023-04-21T00:24:12.862Z,13.70
2023-04-21T00:26:39.257Z,11.70
2023-04-21T00:29:05.754Z,11.90
2023-04-21T00:31:34.796Z,11.97
2023-04-21T00:34:01.328Z,12.97
2023-04-21T00:36:27.677Z,11.43
2023-04-21T00:38:54.299Z,12.50
2023-04-21T00:41:21.075Z,12.33
2023-04-21T00:44:04.646Z,10.20
2023-04-21T00:46:32.971Z,10.70
2023-04-21T00:49:02.387Z,13.63
2023-04-21T00:51:32.336Z,11.77
2023-04-21T00:54:03.240Z,12.63
2023-04-21T00:56:32.919Z,10.53
2023-04-21T00:59:01.724Z,10.07
2023-04-21T01:01:30.257Z,9.27
2023-04-21T01:04:00.933Z,7.97
2023-04-21T01:06:31.582Z,8.93
2023-04-21T01:08:58.427Z,8.33
2023-04-21T01:11:25.789Z,7.60
2023-04-21T01:13:54.061Z,9.20
2023-04-21T01:16:22.682Z,8.90
2023-04-21T01:18:51.661Z,8.47
2023-04-21T01:21:18.930Z,7.23
2023-04-21T01:23:45.642Z,6.63
2023-04-21T01:26:12.207Z,8.07
2023-04-21T01:28:38.585Z,8.40
2023-04-21T01:31:05.787Z,7.37
2023-04-21T01:33:32.066Z,6.97
2023-04-21T01:36:00.596Z,7.90
2023-04-21T01:38:27.474Z,8.00
2023-04-21T01:41:01.438Z,5.70
2023-04-21T01:43:28.087Z,5.03
2023-04-21T01:45:56.063Z,4.90
2023-04-21T01:48:22.281Z,6.20
2023-04-21T01:50:48.445Z,6.20
2023-04-21T01:53:14.670Z,6.67
2023-04-21T01:55:41.101Z,5.90
2023-04-21T01:58:08.932Z,6.47
2023-04-21T02:00:35.127Z,5.47
2023-04-21T02:03:02.526Z,5.47
2023-04-21T02:05:28.798Z,5.63
2023-04-21T02:07:55.591Z,5.73
2023-04-21T02:10:22.426Z,4.80
2023-04-21T02:12:48.818Z,6.13
2023-04-21T02:15:14.950Z,4.97
2023-04-21T02:17:42.373Z,5.20
2023-04-21T02:20:11.363Z,6.30
2023-04-21T02:22:38.820Z,5.13
2023-04-21T02:25:05.763Z,5.50
2023-04-21T02:27:32.169Z,4.77
2023-04-21T02:29:59.439Z,4.77
2023-04-21T02:32:26.364Z,6.33
2023-04-21T02:34:53.002Z,5.13
2023-04-21T02:37:20.292Z,4.10
2023-04-21T02:39:46.476Z,4.30
2023-04-21T02:42:12.633Z,6.07
2023-04-21T02:44:38.811Z,5.40
2023-04-21T02:47:07.626Z,5.87
2023-04-21T02:49:40.045Z,7.27
2023-04-21T02:52:06.395Z,6.90
2023-04-21T02:54:32.811Z,5.90
2023-04-21T02:56:59.171Z,7.23
2023-04-21T02:59:25.406Z,5.60
2023-04-21T03:01:51.543Z,5.60
2023-04-21T03:04:19.003Z,5.27
2023-04-21T03:06:45.225Z,4.63
2023-04-21T03:09:11.878Z,4.93
2023-04-21T03:11:37.999Z,8.43
2023-04-21T03:14:04.148Z,8.97
2023-04-21T03:16:30.315Z,10.10
2023-04-21T03:18:56.474Z,7.67
2023-04-21T03:21:22.633Z,8.17
2023-04-21T03:23:48.811Z,7.83
2023-04-21T03:26:15.630Z,9.57
2023-04-21T03:28:42.052Z,7.77
2023-04-21T03:31:08.185Z,9.20
2023-04-21T03:33:34.421Z,7.13
2023-04-21T03:36:00.639Z,6.33
2023-04-21T03:38:29.364Z,7.23
2023-04-21T03:40:55.776Z,8.57
2023-04-21T03:43:22.221Z,7.93
2023-04-21T03:45:48.654Z,7.90
2023-04-21T03:48:15.073Z,7.97
2023-04-21T03:50:41.503Z,7.43
2023-04-21T03:53:07.896Z,9.47
2023-04-21T03:55:34.067Z,7.13
2023-04-21T03:58:00.221Z,8.47
2023-04-21T04:00:26.449Z,7.43
2023-04-21T04:02:52.701Z,7.77
2023-04-21T04:05:19.078Z,9.13
2023-04-21T04:07:45.313Z,8.07
2023-04-21T04:10:11.522Z,8.07
2023-04-21T04:12:37.693Z,9.80
2023-04-21T04:15:04.338Z,8.60
2023-04-21T04:17:30.572Z,10.93
2023-04-21T04:19:56.978Z,10.50
2023-04-21T04:22:23.168Z,20.90
2023-04-21T04:24:49.313Z,22.80
2023-04-21T04:27:15.939Z,20.50
2023-04-21T04:29:43.233Z,27.53
2023-04-21T04:32:10.481Z,20.07
2023-04-21T04:34:36.958Z,18.27
2023-04-21T04:37:03.677Z,16.23
2023-04-21T04:39:31.467Z,12.37
2023-04-21T04:41:57.605Z,12.93
2023-04-21T04:44:25.078Z,12.07
2023-04-21T04:46:51.892Z,11.30
2023-04-21T04:49:18.087Z,10.40
2023-04-21T04:51:44.446Z,9.80
2023-04-21T04:54:10.691Z,9.63
2023-04-21T04:56:36.988Z,12.40
2023-04-21T04:59:03.197Z,11.03
2023-04-21T05:01:30.376Z,12.30
2023-04-21T05:03:57.162Z,8.93
2023-04-21T05:06:23.788Z,12.80
2023-04-21T05:08:49.948Z,11.63
2023-04-21T05:11:16.092Z,12.50
2023-04-21T05:13:42.236Z,11.17
2023-04-21T05:16:09.572Z,12.13
2023-04-21T05:18:35.996Z,11.30
2023-04-21T05:21:02.196Z,11.30
2023-04-21T05:23:28.580Z,13.27
2023-04-21T05:25:55.215Z,12.60
2023-04-21T05:28:22.376Z,12.30
2023-04-21T05:30:48.670Z,12.77
2023-04-21T05:33:19.065Z,13.63
2023-04-21T05:35:45.273Z,13.57
2023-04-21T05:38:11.500Z,14.50
2023-04-21T05:40:37.669Z,14.10
2023-04-21T05:43:03.828Z,14.37
2023-04-21T05:45:30.195Z,14.47
2023-04-21T05:47:56.463Z,15.57
2023-04-21T05:50:24.759Z,15.13
2023-04-21T05:52:50.875Z,14.50
2023-04-21T05:55:17.021Z,14.57
2023-04-21T05:57:43.524Z,14.37
2023-04-21T06:00:10.620Z,13.70
2023-04-21T06:02:36.964Z,13.67
2023-04-21T06:05:03.751Z,14.90
2023-04-21T06:07:30.161Z,14.13
2023-04-21T06:09:57.140Z,14.80
2023-04-21T06:12:23.372Z,15.00
2023-04-21T06:14:49.926Z,15.27
2023-04-21T06:17:17.318Z,15.83
2023-04-21T06:19:43.510Z,15.23
2023-04-21T06:22:09.757Z,14.17
2023-04-21T06:24:36.185Z,16.07
2023-04-21T06:27:02.378Z,15.23
2023-04-21T06:29:28.588Z,14.03
2023-04-21T06:31:54.762Z,15.07
2023-04-21T06:34:21.133Z,13.90
2023-04-21T06:36:47.654Z,13.17
2023-04-21T06:39:13.812Z,13.77
2023-04-21T06:41:40.056Z,14.90
2023-04-21T06:44:06.227Z,14.00
2023-04-21T06:46:32.683Z,12.43
2023-04-21T06:48:58.838Z,14.03
2023-04-21T06:51:25.031Z,14.33
2023-04-21T06:53:51.231Z,13.63
2023-04-21T06:56:17.423Z,13.80
2023-04-21T06:58:43.562Z,12.90
2023-04-21T07:01:10.037Z,13.67
2023-04-21T07:03:36.517Z,13.87
2023-04-21T07:06:03.141Z,13.07
2023-04-21T07:08:29.391Z,12.90
2023-04-21T07:10:55.586Z,13.90
2023-04-21T07:13:21.827Z,12.87
2023-04-21T07:15:48.066Z,14.20
2023-04-21T07:18:14.551Z,12.93
2023-04-21T07:20:41.135Z,15.03
2023-04-21T07:23:07.514Z,14.27
2023-04-21T07:25:33.668Z,14.87
2023-04-21T07:27:59.822Z,14.53
2023-04-21T07:30:26.069Z,15.50
2023-04-21T07:32:52.405Z,14.87
2023-04-21T07:35:18.551Z,15.80
2023-04-21T07:37:44.917Z,16.57
2023-04-21T07:40:11.617Z,16.53
2023-04-21T07:42:38.482Z,16.77
2023-04-21T07:45:05.339Z,17.57
2023-04-21T07:47:32.835Z,15.93
2023-04-21T07:49:59.079Z,16.77
2023-04-21T07:52:25.466Z,16.43
2023-04-21T07:54:51.911Z,17.07
2023-04-21T07:57:18.090Z,17.00
2023-04-21T07:59:44.601Z,16.53
2023-04-21T08:02:10.788Z,17.97
2023-04-21T08:04:37.099Z,17.97
2023-04-21T08:07:03.842Z,17.23
2023-04-21T08:09:30.215Z,17.90
2023-04-21T08:11:57.433Z,17.33
2023-04-21T08:14:24.042Z,17.93
2023-04-21T08:16:50.409Z,18.53
2023-04-21T08:19:16.974Z,19.03
2023-04-21T08:21:43.173Z,18.63
2023-04-21T08:24:09.348Z,17.87
2023-04-21T08:26:35.783Z,18.90
2023-04-21T08:29:04.345Z,18.73
2023-04-21T08:31:30.956Z,18.67
2023-04-21T08:34:01.870Z,18.43
2023-04-21T08:36:29.728Z,18.07
2023-04-21T08:38:57.047Z,18.47
2023-04-21T08:41:24.955Z,18.50
2023-04-21T08:43:51.294Z,19.17
2023-04-21T08:46:19.029Z,17.53
2023-04-21T08:48:47.059Z,18.07
2023-04-21T08:51:23.572Z,18.77
2023-04-21T08:53:50.100Z,17.47
2023-04-21T08:56:16.264Z,18.30
2023-04-21T08:58:42.486Z,17.83
2023-04-21T09:01:08.832Z,19.13
2023-04-21T09:03:35.347Z,16.93
2023-04-21T09:06:08.866Z,18.70
2023-04-21T09:08:43.483Z,16.53
2023-04-21T09:11:14.140Z,19.70
2023-04-21T09:13:42.969Z,17.43
2023-04-21T09:16:21.732Z,17.67
2023-04-21T09:18:50.663Z,17.83
2023-04-21T09:21:19.554Z,17.23
2023-04-21T09:23:51.791Z,18.50
2023-04-21T09:26:22.184Z,17.33
2023-04-21T09:28:50.449Z,17.40
2023-04-21T09:31:29.706Z,18.47
2023-04-21T09:34:00.025Z,17.57
2023-04-21T09:36:31.538Z,18.20
2023-04-21T09:39:29.061Z,17.27
2023-04-21T09:41:50.283Z,17.13
2023-04-21T09:44:17.104Z,17.23
2023-04-21T09:46:52.067Z,18.90
2023-04-21T09:49:22.296Z,18.00
2023-04-21T09:52:17.043Z,16.97
2023-04-21T09:54:44.657Z,17.67
2023-04-21T09:57:13.868Z,17.17
2023-04-21T09:59:47.127Z,17.47
2023-04-21T10:02:14.075Z,18.17
2023-04-21T10:04:43.033Z,17.47
2023-04-21T10:07:10.858Z,17.63
2023-04-21T10:09:48.403Z,15.50
2023-04-21T10:12:15.504Z,16.07
2023-04-21T10:14:41.959Z,16.47
2023-04-21T10:17:10.259Z,18.27
2023-04-21T10:19:48.104Z,16.67
2023-04-21T10:22:14.471Z,17.60
2023-04-21T10:24:42.215Z,17.20
2023-04-21T10:27:29.949Z,17.10
2023-04-21T10:29:58.288Z,15.40
2023-04-21T10:32:42.328Z,17.10
2023-04-21T10:35:13.194Z,16.83
2023-04-21T10:37:42.135Z,15.97
2023-04-21T10:40:44.172Z,16.87
2023-04-21T10:43:49.282Z,15.73
2023-04-21T10:46:53.033Z,15.67
2023-04-21T10:49:29.996Z,15.47
2023-04-21T10:51:59.400Z,15.50
2023-04-21T10:54:27.240Z,16.07
2023-04-21T10:56:56.830Z,15.60
2023-04-21T10:59:25.436Z,15.57
2023-04-21T11:01:52.003Z,15.50
2023-04-21T11:04:21.576Z,15.67
2023-04-21T11:07:09.688Z,16.27
2023-04-21T11:09:37.637Z,13.50
2023-04-21T11:12:13.551Z,15.10
2023-04-21T11:14:43.200Z,14.37
2023-04-21T11:17:16.626Z,16.30
2023-04-21T11:20:03.219Z,14.53
2023-04-21T11:22:29.569Z,14.53
2023-04-21T11:24:57.865Z,14.90
2023-04-21T11:27:28.396Z,14.10
2023-04-21T11:29:54.725Z,14.93
2023-04-21T11:32:21.124Z,14.33
2023-04-21T11:34:47.566Z,14.77
2023-04-21T11:37:23.217Z,13.47
2023-04-21T11:39:49.489Z,13.70
2023-04-21T11:42:24.506Z,12.87
2023-04-21T11:44:54.280Z,13.07
2023-04-21T11:47:27.134Z,13.73
2023-04-21T11:49:59.964Z,13.30
2023-04-21T11:52:37.484Z,13.27
2023-04-21T11:55:20.053Z,12.30
2023-04-21T11:57:46.340Z,11.53
2023-04-21T12:00:14.691Z,12.10
2023-04-21T12:02:42.600Z,10.97
2023-04-21T12:05:12.289Z,11.63
2023-04-21T12:07:43.673Z,11.20
2023-04-21T12:10:17.297Z,10.17
2023-04-21T12:12:45.520Z,10.73
2023-04-21T12:15:18.750Z,10.30
2023-04-21T12:17:47.679Z,10.33
2023-04-21T12:20:22.830Z,10.27
2023-04-21T12:22:49.582Z,10.30
2023-04-21T12:25:16.052Z,9.17
2023-04-21T12:27:51.726Z,9.83
2023-04-21T12:30:19.092Z,9.87
2023-04-21T12:32:46.738Z,9.47
2023-04-21T12:35:13.464Z,9.20
2023-04-21T12:37:39.735Z,9.57
2023-04-21T12:40:07.380Z,9.37
2023-04-21T12:42:36.720Z,10.23
2023-04-21T12:45:04.874Z,9.03
2023-04-21T12:47:31.075Z,9.17
2023-04-21T12:49:57.331Z,8.90
2023-04-21T12:52:23.553Z,9.23
2023-04-21T12:54:50.015Z,9.47
2023-04-21T12:57:16.268Z,9.70
2023-04-21T12:59:44.111Z,10.13
2023-04-21T13:02:12.457Z,9.00
2023-04-21T13:04:41.270Z,9.30
2023-04-21T13:07:08.263Z,9.20
2023-04-21T13:09:34.812Z,10.20
2023-04-21T13:12:01.254Z,10.27
2023-04-21T13:14:27.445Z,9.27
2023-04-21T13:16:53.917Z,9.13
2023-04-21T13:19:20.343Z,9.70
2023-04-21T13:21:47.703Z,9.57
2023-04-21T13:24:14.748Z,9.37
2023-04-21T13:26:41.416Z,8.57
2023-04-21T13:29:08.225Z,9.50
2023-04-21T13:31:34.935Z,10.20
2023-04-21T13:34:01.763Z,10.20
2023-04-21T13:36:28.060Z,10.30
2023-04-21T13:38:55.458Z,10.17
2023-04-21T13:41:21.854Z,10.50
2023-04-21T13:43:48.202Z,9.80
2023-04-21T13:46:14.485Z,10.07
2023-04-21T13:48:41.029Z,10.47
2023-04-21T13:51:07.473Z,9.63
2023-04-21T13:53:33.685Z,9.83
2023-04-21T13:55:59.965Z,9.50
2023-04-21T13:58:26.293Z,10.77
2023-04-21T14:00:53.034Z,10.73
2023-04-21T14:03:19.479Z,10.63
2023-04-21T14:05:45.937Z,10.30
2023-04-21T14:08:12.600Z,10.43
2023-04-21T14:10:38.759Z,10.13
2023-04-21T14:13:05.378Z,9.83
2023-04-21T14:15:32.290Z,9.43
2023-04-21T14:17:59.916Z,9.37
2023-04-21T14:20:27.007Z,9.70
2023-04-21T14:22:53.277Z,10.40
2023-04-21T14:25:19.531Z,10.13
2023-04-21T14:27:45.731Z,9.20
2023-04-21T14:30:13.887Z,9.00
2023-04-21T14:32:44.602Z,9.97
2023-04-21T14:35:12.076Z,10.27
2023-04-21T14:37:39.471Z,9.40
2023-04-21T14:40:09.710Z,10.13
2023-04-21T14:42:36.167Z,9.67
2023-04-21T14:45:02.654Z,9.40
2023-04-21T14:47:29.239Z,9.13
2023-04-21T14:49:55.647Z,9.47
2023-04-21T14:52:26.090Z,9.13
2023-04-21T14:54:52.521Z,9.20
2023-04-21T14:57:21.456Z,9.10
2023-04-21T14:59:52.477Z,9.20
2023-04-21T15:02:20.261Z,9.30
2023-04-21T15:04:47.098Z,8.90
2023-04-21T15:07:13.651Z,8.33
2023-04-21T15:09:42.504Z,9.27
2023-04-21T15:12:09.342Z,9.13
2023-04-21T15:14:35.551Z,8.57
2023-04-21T15:17:01.971Z,8.80
2023-04-21T15:19:28.484Z,9.63
2023-04-21T15:21:55.211Z,8.73
2023-04-21T15:24:21.749Z,8.73
2023-04-21T15:26:47.909Z,8.57
2023-04-21T15:29:14.195Z,8.50
2023-04-21T15:31:40.638Z,8.50
2023-04-21T15:34:09.857Z,8.00
2023-04-21T15:36:36.249Z,7.47
2023-04-21T15:39:03.220Z,8.37
2023-04-21T15:41:30.768Z,7.73
2023-04-21T15:44:00.446Z,7.60
2023-04-21T15:46:26.788Z,7.97
2023-04-21T15:48:53.138Z,7.57
2023-04-21T15:51:19.591Z,7.47
2023-04-21T15:53:48.898Z,8.13
2023-04-21T15:56:15.915Z,7.37
2023-04-21T15:58:42.360Z,7.43
2023-04-21T16:01:08.922Z,7.03
2023-04-21T16:03:36.411Z,7.10
2023-04-21T16:06:03.547Z,7.30
2023-04-21T16:08:32.256Z,7.03
2023-04-21T16:10:59.644Z,7.67
2023-04-21T16:13:26.057Z,7.03
2023-04-21T16:15:52.403Z,6.60
2023-04-21T16:18:19.011Z,6.40
2023-04-21T16:20:48.964Z,6.83
2023-04-21T16:23:15.442Z,8.13
2023-04-21T16:25:42.338Z,6.83
2023-04-21T16:28:09.021Z,7.23
2023-04-21T16:30:35.740Z,7.40
2023-04-21T16:33:02.304Z,7.70
2023-04-21T16:35:28.668Z,7.43
2023-04-21T16:37:55.300Z,7.47
2023-04-21T16:40:21.706Z,7.27
2023-04-21T16:42:48.483Z,7.30
2023-04-21T16:45:14.928Z,6.90
2023-04-21T16:47:42.564Z,7.40
2023-04-21T16:50:09.976Z,6.90
2023-04-21T16:52:36.535Z,7.77
2023-04-21T16:55:02.857Z,6.73
2023-04-21T16:57:30.425Z,7.20
2023-04-21T16:59:58.295Z,6.97
2023-04-21T17:02:25.294Z,7.00
2023-04-21T17:04:55.015Z,6.83
2023-04-21T17:07:21.228Z,6.63
2023-04-21T17:09:47.428Z,6.70
2023-04-21T17:12:13.838Z,6.63
2023-04-21T17:14:40.601Z,6.93
2023-04-21T17:17:07.314Z,6.37
2023-04-21T17:19:33.798Z,6.47
2023-04-21T17:21:59.982Z,6.90
2023-04-21T17:24:27.231Z,6.50
2023-04-21T17:26:56.447Z,6.50
2023-04-21T17:29:22.703Z,6.57
2023-04-21T17:31:48.999Z,6.53
2023-04-21T17:34:15.544Z,6.13
2023-04-21T17:36:44.000Z,6.60
2023-04-21T17:39:10.392Z,6.30
2023-04-21T17:41:36.607Z,6.57
2023-04-21T17:44:02.904Z,5.97
2023-04-21T17:46:29.814Z,6.17
2023-04-21T17:48:56.556Z,5.47
2023-04-21T17:51:24.304Z,5.90
2023-04-21T17:53:50.748Z,5.83
2023-04-21T17:56:19.944Z,5.87
2023-04-21T17:58:46.405Z,5.90
2023-04-21T18:01:12.589Z,5.93
2023-04-21T18:03:43.914Z,5.80
2023-04-21T18:06:10.920Z,5.53
2023-04-21T18:08:37.964Z,6.33
2023-04-21T18:11:05.446Z,4.80
2023-04-21T18:13:31.752Z,5.53
2023-04-21T18:15:58.457Z,5.17
2023-04-21T18:18:25.866Z,4.90
2023-04-21T18:20:52.162Z,4.87
2023-04-21T18:23:18.654Z,5.87
2023-04-21T18:25:46.226Z,5.70
2023-04-21T18:28:12.867Z,4.87
2023-04-21T18:30:39.702Z,5.63
2023-04-21T18:33:06.207Z,6.30
2023-04-21T18:35:33.246Z,5.67
2023-04-21T18:38:00.169Z,5.40
2023-04-21T18:40:26.699Z,6.10
2023-04-21T18:42:52.969Z,5.60
2023-04-21T18:45:19.279Z,5.37
2023-04-21T18:47:46.393Z,5.90
2023-04-21T18:50:13.161Z,5.93
2023-04-21T18:52:42.678Z,5.53
2023-04-21T18:55:09.198Z,5.13
2023-04-21T18:57:35.663Z,5.77
2023-04-21T19:00:01.998Z,5.10
2023-04-21T19:02:29.216Z,5.97
2023-04-21T19:04:55.794Z,6.07
2023-04-21T19:07:22.036Z,5.47
2023-04-21T19:09:48.229Z,6.13
2023-04-21T19:12:15.739Z,5.03
2023-04-21T19:14:47.213Z,5.93
2023-04-21T19:17:14.865Z,6.50
2023-04-21T19:19:41.665Z,6.00
2023-04-21T19:22:07.934Z,6.83
2023-04-21T19:24:34.688Z,5.83
2023-04-21T19:27:01.858Z,6.90
2023-04-21T19:29:28.161Z,7.93
2023-04-21T19:31:54.615Z,5.07
2023-04-21T19:34:21.550Z,3.20
2023-04-21T19:36:51.068Z,2.40
2023-04-21T19:39:17.285Z,2.40
2023-04-21T19:41:43.538Z,2.33
2023-04-21T19:44:10.065Z,2.40
2023-04-21T19:46:36.463Z,2.17
2023-04-21T19:49:02.741Z,2.30
2023-04-21T19:51:28.908Z,2.13
2023-04-21T19:54:10.112Z,2.07
2023-04-21T19:56:37.485Z,2.23
2023-04-21T19:59:04.880Z,2.03
2023-04-21T20:01:32.889Z,2.03
2023-04-21T20:03:59.867Z,2.10
2023-04-21T20:06:27.977Z,2.13
2023-04-21T20:08:55.203Z,2.10
2023-04-21T20:11:22.377Z,2.07
2023-04-21T20:13:48.892Z,2.23
2023-04-21T20:16:16.541Z,1.97
2023-04-21T20:18:43.007Z,2.20
2023-04-21T20:21:09.220Z,2.30
2023-04-21T20:23:35.423Z,2.17
2023-04-21T20:26:01.820Z,1.83
2023-04-21T20:28:28.041Z,1.87
2023-04-21T20:30:56.327Z,2.07
2023-04-21T20:33:22.671Z,1.80
2023-04-21T20:35:49.042Z,1.73
2023-04-21T20:38:15.783Z,2.00
2023-04-21T20:40:42.330Z,2.00
2023-04-21T20:43:09.424Z,2.13
2023-04-21T20:45:36.014Z,1.90
2023-04-21T20:48:03.273Z,1.97
2023-04-21T20:50:29.601Z,1.80
2023-04-21T20:52:56.007Z,1.97
2023-04-21T20:55:22.398Z,2.77
2023-04-21T20:57:48.828Z,2.00
2023-04-21T21:00:15.212Z,2.00
2023-04-21T21:02:41.628Z,2.60
2023-04-21T21:05:08.157Z,2.20
2023-04-21T21:07:34.498Z,1.97
2023-04-21T21:10:00.902Z,2.00
2023-04-21T21:12:27.103Z,2.23
2023-04-21T21:14:53.305Z,2.50
2023-04-21T21:17:19.875Z,2.60
2023-04-21T21:19:46.032Z,2.67
2023-04-21T21:22:12.473Z,2.43
2023-04-21T21:24:38.636Z,2.10
2023-04-21T21:27:04.872Z,2.57
2023-04-21T21:29:31.138Z,2.30
2023-04-21T21:31:57.641Z,2.60
2023-04-21T21:34:24.090Z,2.23
2023-04-21T21:36:50.278Z,2.50
2023-04-21T21:39:16.709Z,2.00
2023-04-21T21:41:42.975Z,2.50
2023-04-21T21:44:09.909Z,2.50
2023-04-21T21:46:36.171Z,2.30
2023-04-21T21:49:02.433Z,2.53
2023-04-21T21:51:28.826Z,2.70
2023-04-21T21:53:55.247Z,2.57
2023-04-21T21:56:23.462Z,2.37
2023-04-21T21:58:50.052Z,2.50
2023-04-21T22:01:17.373Z,2.47
2023-04-21T22:03:44.539Z,2.40
2023-04-21T22:06:11.536Z,2.70
2023-04-21T22:08:37.707Z,2.97
2023-04-21T22:11:05.140Z,3.17
2023-04-21T22:13:31.712Z,2.80
2023-04-21T22:15:58.212Z,2.63
2023-04-21T22:18:24.541Z,3.00
2023-04-21T22:20:50.992Z,2.70
2023-04-21T22:23:19.007Z,2.67
2023-04-21T22:25:45.410Z,2.80
2023-04-21T22:28:12.474Z,2.80
2023-04-21T22:30:38.703Z,3.13
2023-04-21T22:33:05.236Z,3.30
2023-04-21T22:35:31.708Z,3.00
2023-04-21T22:37:58.078Z,3.40
2023-04-21T22:40:24.225Z,3.10
2023-04-21T22:42:50.421Z,2.60
2023-04-21T22:45:16.712Z,2.90
2023-04-21T22:47:43.045Z,2.87
2023-04-21T22:50:09.997Z,3.10
2023-04-21T22:52:36.444Z,3.00
2023-04-21T22:55:04.481Z,2.70
2023-04-21T22:57:31.765Z,2.90
2023-04-21T22:59:58.434Z,2.70
2023-04-21T23:02:24.772Z,2.67
2023-04-21T23:04:51.289Z,2.83
2023-04-21T23:07:17.736Z,2.90
2023-04-21T23:09:44.154Z,2.90
2023-04-21T23:12:10.390Z,2.90
2023-04-21T23:14:36.681Z,2.47
2023-04-21T23:17:03.954Z,2.43
2023-04-21T23:19:30.255Z,2.63
2023-04-21T23:21:56.405Z,2.70
2023-04-21T23:24:22.888Z,3.20
2023-04-21T23:26:49.047Z,2.90
2023-04-21T23:29:15.578Z,3.00
2023-04-21T23:31:42.244Z,3.40
2023-04-21T23:34:09.270Z,3.70
2023-04-21T23:36:35.817Z,3.20
2023-04-21T23:39:02.155Z,3.17
2023-04-21T23:41:28.771Z,3.53
2023-04-21T23:43:55.081Z,2.67
2023-04-21T23:46:21.273Z,3.30
2023-04-21T23:48:47.554Z,3.33
2023-04-21T23:51:14.922Z,3.27
2023-04-21T23:53:41.094Z,3.90
2023-04-21T23:56:07.643Z,3.63
2023-04-21T23:58:34.037Z,3.97
